This is the latest recevied weather packets stored in our database for station/object W8KVG. If no packets are shown the sender has not sent any weather packets the latest 10 day(s).
| Time | Temp. | Humidity | Pressure | Rain* | Wind** | Luminosity | Snow |
|---|---|---|---|---|---|---|---|
| 1777662005 | 7.78° C | 92% | 1011.3 hPa | 3.05 mm | - | 77 W/m² | - |
| 1777661701 | 7.78° C | 93% | 1011.3 hPa | 3.05 mm | - | 79 W/m² | - |
| 1777661397 | 7.78° C | 93% | 1011.1 hPa | 3.05 mm | - | 73 W/m² | - |
| 1777661093 | 7.78° C | 92% | 1011.2 hPa | 1.78 mm | - | 51 W/m² | - |
| 1777660788 | 7.78° C | 92% | 1011.5 hPa | 1.78 mm | - | 59 W/m² | - |
| 1777660486 | 8.33° C | 91% | 1011.4 hPa | 2.29 mm | - | 48 W/m² | - |
| 1777660182 | 8.33° C | 90% | 1011.3 hPa | 1.27 mm | - | 72 W/m² | - |
| 1777659879 | 8.33° C | 89% | 1011.2 hPa | 1.27 mm | - | 37 W/m² | - |
| 1777659576 | 8.89° C | 88% | 1011.2 hPa | 0 mm | - | 57 W/m² | - |
| 1777659273 | 8.89° C | 87% | 1011.1 hPa | 0.51 mm | - | 53 W/m² | - |
| 1777658970 | 9.44° C | 88% | 1010.8 hPa | 0.51 mm | - | 74 W/m² | - |
| 1777658667 | 8.89° C | 85% | 1011.1 hPa | 0.51 mm | - | 77 W/m² | - |
| 1777658363 | 8.89° C | 86% | 1011.1 hPa | 0 mm | - | 90 W/m² | - |
| 1777658060 | 8.89° C | 83% | 1011.1 hPa | 0.51 mm | - | 89 W/m² | - |
| 1777657757 | 9.44° C | 83% | 1010.9 hPa | 0.51 mm | - | 123 W/m² | - |
| 1777657455 | 9.44° C | 82% | 1011.1 hPa | 0.51 mm | - | 123 W/m² | - |
| 1777657152 | 9.44° C | 82% | 1011 hPa | 1.27 mm | - | 132 W/m² | - |
| 1777656850 | 9.44° C | 79% | 1010.9 hPa | 0.51 mm | - | 140 W/m² | - |
| 1777656545 | 9.44° C | 80% | 1010.9 hPa | 0.51 mm | - | 89 W/m² | - |
| 1777656240 | 9.44° C | 78% | 1011.1 hPa | 0.51 mm | - | 78 W/m² | - |
| 1777655936 | 9.44° C | 74% | 1011 hPa | 0.51 mm | - | 47 W/m² | - |
| 1777655633 | 10° C | 73% | 1011 hPa | 0 mm | - | 75 W/m² | - |
| 1777655329 | 11.11° C | 75% | 1011.1 hPa | 0 mm | - | 118 W/m² | - |
| 1777655026 | 11.11° C | 72% | 1011 hPa | 0 mm | - | 141 W/m² | - |
| 1777654724 | 11.11° C | 78% | 1010.9 hPa | 0 mm | - | 153 W/m² | - |
* Rain latest hour (hover to see other rain measurements)
** Current wind speed in m/s (hover to see current wind gust speed)